Time;durP1;ratioP1;P1;durP2;ratioP2;P2;SDS_P1;SDS_P2;PMS_P1;PMS_P2;Temp;Humidity;BMP_temperature;BMP_pressure;BME280_temperature;BME280_humidity;BME280_pressure;Samples;Min_cycle;Max_cycle;Signal;HPM_P1;HPM_P2
2020/12/05 00:01:04;;;;;;;;;;;6.10;73.90;;;;;;4949071;28;119256;-88
2020/12/05 00:03:29;;;;;;;;;;;6.00;73.90;;;;;;4950700;28;117706;-88
2020/12/05 00:05:55;;;;;;;;;;;6.10;74.00;;;;;;4950830;28;117431;-88
2020/12/05 00:08:20;;;;;;;;;;;6.10;74.00;;;;;;4966171;28;118777;-88
2020/12/05 00:10:46;;;;;;;;;;;6.10;74.00;;;;;;4949782;28;119249;-88
2020/12/05 00:13:11;;;;;;;;;;;6.10;74.00;;;;;;4950394;28;117576;-88
2020/12/05 00:15:37;;;;;;;;;;;6.00;73.90;;;;;;4967049;28;117725;-88
2020/12/05 00:18:02;;;;;;;;;;;6.00;73.90;;;;;;4949845;28;120020;-88
2020/12/05 00:20:28;;;;;;;;;;;6.10;74.00;;;;;;4949482;28;118811;-88
2020/12/05 00:22:54;;;;;;;;;;;6.10;74.00;;;;;;4950297;28;117930;-88
2020/12/05 00:25:19;;;;;;;;;;;6.00;74.00;;;;;;4950153;28;117393;-88
2020/12/05 00:27:44;;;;;;;;;;;6.00;73.90;;;;;;4948927;28;121135;-88
2020/12/05 00:30:10;;;;;;;;;;;6.10;74.00;;;;;;4966073;28;117362;-88
2020/12/05 00:32:36;;;;;;;;;;;6.00;73.90;;;;;;4950083;28;117544;-88
2020/12/05 00:35:01;;;;;;;;;;;6.00;74.00;;;;;;4950632;28;117484;-88
2020/12/05 00:37:27;;;;;;;;;;;6.00;73.90;;;;;;4965545;28;118773;-88
2020/12/05 00:39:53;;;;;;;;;;;6.00;73.90;;;;;;4949328;28;120250;-88
2020/12/05 00:42:18;;;;;;;;;;;6.00;73.90;;;;;;4950155;28;117449;-88
2020/12/05 00:44:44;;;;;;;;;;;6.10;74.00;;;;;;4967058;28;117495;-88
2020/12/05 00:47:09;;;;;;;;;;;6.00;73.90;;;;;;4948925;28;120344;-88
2020/12/05 00:49:35;;;;;;;;;;;6.10;74.00;;;;;;4948424;28;120379;-88
2020/12/05 00:52:00;;;;;;;;;;;6.00;73.90;;;;;;4966662;28;117424;-88
2020/12/05 00:54:26;;;;;;;;;;;6.00;73.90;;;;;;4950177;28;117852;-88
2020/12/05 00:56:52;;;;;;;;;;;6.00;73.90;;;;;;4948650;28;121378;-88
2020/12/05 00:59:17;;;;;;;;;;;6.10;74.00;;;;;;4965536;28;117563;-88
2020/12/05 01:01:43;;;;;;;;;;;6.00;73.90;;;;;;4949743;28;117499;-88
2020/12/05 01:04:08;;;;;;;;;;;6.00;73.90;;;;;;4950062;28;117874;-88
2020/12/05 01:06:34;;;;;;;;;;;6.10;73.90;;;;;;4948659;28;121013;-88
2020/12/05 01:08:59;;;;;;;;;;;6.00;73.90;;;;;;4948370;28;122271;-88
2020/12/05 01:11:25;;;;;;;;;;;6.00;74.00;;;;;;4949287;28;117520;-88
2020/12/05 01:13:50;;;;;;;;;;;6.00;73.90;;;;;;4949276;28;117940;-88
2020/12/05 01:16:16;;;;;;;;;;;6.00;73.90;;;;;;4948329;28;121408;-88
2020/12/05 01:18:42;;;;;;;;;;;6.00;74.00;;;;;;4948942;28;119328;-88
2020/12/05 01:21:11;;;;;;;;;;;6.00;73.90;;;;;;4950035;28;117386;-88
2020/12/05 01:23:36;;;;;;;;;;;6.10;74.00;;;;;;4950208;28;117390;-88
2020/12/05 01:26:02;;;;;;;;;;;6.00;73.90;;;;;;4948796;28;121647;-88
2020/12/05 01:28:28;;;;;;;;;;;6.00;73.90;;;;;;4949171;28;119361;-88
2020/12/05 01:30:53;;;;;;;;;;;6.00;73.90;;;;;;4950249;28;117544;-88
2020/12/05 01:33:19;;;;;;;;;;;6.00;73.90;;;;;;4950340;28;117845;-88
2020/12/05 01:35:44;;;;;;;;;;;6.00;73.90;;;;;;4965671;28;117564;-88
2020/12/05 01:38:10;;;;;;;;;;;6.00;73.90;;;;;;4948038;28;119153;-88
2020/12/05 01:40:35;;;;;;;;;;;6.00;73.90;;;;;;4950141;28;117454;-88
2020/12/05 01:43:01;;;;;;;;;;;6.00;73.90;;;;;;4950927;28;117862;-88
2020/12/05 01:45:26;;;;;;;;;;;6.00;74.00;;;;;;4965629;28;118476;-88
2020/12/05 01:47:52;;;;;;;;;;;6.00;74.00;;;;;;4965487;28;117709;-88
2020/12/05 01:50:17;;;;;;;;;;;6.00;73.90;;;;;;4949807;28;117327;-88
2020/12/05 01:52:43;;;;;;;;;;;6.00;73.90;;;;;;4950223;28;117801;-88
2020/12/05 01:55:09;;;;;;;;;;;6.00;73.90;;;;;;4965574;28;118723;-88
2020/12/05 01:57:34;;;;;;;;;;;6.10;74.10;;;;;;4948427;28;119179;-88
2020/12/05 02:00:00;;;;;;;;;;;6.00;74.00;;;;;;4949441;28;117544;-88
2020/12/05 02:02:25;;;;;;;;;;;6.10;74.00;;;;;;4949033;28;117342;-88
2020/12/05 02:04:56;;;;;;;;;;;6.00;73.90;;;;;;4947761;28;119826;-88
2020/12/05 02:07:23;;;;;;;;;;;6.00;74.00;;;;;;4963900;28;117423;-88
2020/12/05 02:09:52;;;;;;;;;;;6.00;74.00;;;;;;4948696;28;117527;-88
2020/12/05 02:12:24;;;;;;;;;;;6.00;73.90;;;;;;4949144;28;117857;-88
2020/12/05 02:14:50;;;;;;;;;;;6.00;74.00;;;;;;4965467;28;118694;-88
2020/12/05 02:17:15;;;;;;;;;;;6.00;74.00;;;;;;4947715;28;120253;-88
2020/12/05 02:19:46;;;;;;;;;;;6.00;74.00;;;;;;4948578;28;117398;-88
2020/12/05 02:22:12;;;;;;;;;;;6.10;74.00;;;;;;4949188;28;117535;-88
2020/12/05 02:24:38;;;;;;;;;;;6.00;74.00;;;;;;4964218;28;118507;-88
2020/12/05 02:27:04;;;;;;;;;;;6.00;74.00;;;;;;4946828;28;119539;-88
2020/12/05 02:29:29;;;;;;;;;;;6.00;74.00;;;;;;4948386;28;117304;-88
2020/12/05 02:31:55;;;;;;;;;;;6.00;74.00;;;;;;4948853;28;117393;-88
2020/12/05 02:34:20;;;;;;;;;;;6.00;74.00;;;;;;4947604;28;119969;-88
2020/12/05 02:36:46;;;;;;;;;;;6.00;74.00;;;;;;4947463;28;119660;-88
2020/12/05 02:39:11;;;;;;;;;;;6.00;74.00;;;;;;4948399;28;117536;-88
2020/12/05 02:41:40;;;;;;;;;;;6.00;74.00;;;;;;4965114;28;117476;-88
2020/12/05 02:44:06;;;;;;;;;;;6.00;74.00;;;;;;4947455;28;120922;-88
2020/12/05 02:46:32;;;;;;;;;;;6.00;74.00;;;;;;4947219;28;119330;-88
2020/12/05 02:48:57;;;;;;;;;;;6.00;74.10;;;;;;4947915;28;117467;-88
2020/12/05 02:51:23;;;;;;;;;;;6.00;74.00;;;;;;4963740;28;117859;-88
2020/12/05 02:53:49;;;;;;;;;;;6.00;74.00;;;;;;4946988;28;120397;-88
2020/12/05 02:56:15;;;;;;;;;;;6.00;74.00;;;;;;4947153;28;118883;-88
2020/12/05 02:58:40;;;;;;;;;;;6.00;74.00;;;;;;4948178;28;117269;-88
2020/12/05 03:01:06;;;;;;;;;;;6.00;74.10;;;;;;4948606;28;117203;-87
2020/12/05 03:03:31;;;;;;;;;;;6.00;74.10;;;;;;4963598;28;118893;-88
2020/12/05 03:05:57;;;;;;;;;;;6.00;74.10;;;;;;4963209;28;119483;-88
2020/12/05 03:08:22;;;;;;;;;;;6.00;74.10;;;;;;4964311;28;117600;-88
2020/12/05 03:10:48;;;;;;;;;;;6.00;74.10;;;;;;4948131;28;117609;-88
2020/12/05 03:13:13;;;;;;;;;;;6.00;74.10;;;;;;4946837;28;122158;-88
2020/12/05 03:15:39;;;;;;;;;;;6.00;74.10;;;;;;4962527;28;117965;-88
2020/12/05 03:18:04;;;;;;;;;;;6.00;74.10;;;;;;4964334;28;117525;-88
2020/12/05 03:20:30;;;;;;;;;;;6.00;74.10;;;;;;4948213;28;117588;-88
2020/12/05 03:22:55;;;;;;;;;;;6.00;74.10;;;;;;4946734;28;121668;-87
2020/12/05 03:25:21;;;;;;;;;;;6.00;74.10;;;;;;4946598;28;120690;-87
2020/12/05 03:27:46;;;;;;;;;;;6.00;74.10;;;;;;4947677;28;117354;-87
2020/12/05 03:30:12;;;;;;;;;;;6.00;74.10;;;;;;4964596;28;117829;-88
2020/12/05 03:32:37;;;;;;;;;;;6.00;74.10;;;;;;4946932;28;120496;-87
2020/12/05 03:35:03;;;;;;;;;;;6.00;74.10;;;;;;4946624;28;119771;-87
2020/12/05 03:37:29;;;;;;;;;;;6.00;74.10;;;;;;4963985;28;117406;-87
2020/12/05 03:39:54;;;;;;;;;;;6.00;74.10;;;;;;4947384;28;117820;-87
2020/12/05 03:42:20;;;;;;;;;;;6.00;74.10;;;;;;4963327;28;117777;-87
2020/12/05 03:44:45;;;;;;;;;;;6.00;74.10;;;;;;4963341;28;117295;-87
2020/12/05 03:47:11;;;;;;;;;;;6.00;74.10;;;;;;4947699;28;117628;-87
2020/12/05 03:49:37;;;;;;;;;;;6.00;74.10;;;;;;4964890;28;117796;-87
2020/12/05 03:52:02;;;;;;;;;;;6.00;74.10;;;;;;4947226;28;121234;-87
2020/12/05 03:54:28;;;;;;;;;;;6.00;74.10;;;;;;4963929;28;117649;-87
2020/12/05 03:56:53;;;;;;;;;;;6.00;74.10;;;;;;4964845;28;117442;-87
2020/12/05 03:59:19;;;;;;;;;;;6.00;74.10;;;;;;4948598;28;117871;-87
2020/12/05 04:01:44;;;;;;;;;;;6.00;74.10;;;;;;4948530;28;121251;-87
2020/12/05 04:04:10;;;;;;;;;;;6.00;74.10;;;;;;4966845;28;116847;-87
2020/12/05 04:06:35;;;;;;;;;;;6.00;74.10;;;;;;4951479;28;117600;-87
2020/12/05 04:09:01;;;;;;;;;;;6.00;74.10;;;;;;4952048;28;118001;-87
2020/12/05 04:11:26;;;;;;;;;;;6.00;74.10;;;;;;4968080;28;117775;-87
2020/12/05 04:13:52;;;;;;;;;;;6.00;74.10;;;;;;4951218;28;119176;-87
2020/12/05 04:16:17;;;;;;;;;;;6.00;74.10;;;;;;4951291;28;117643;-87
2020/12/05 04:18:43;;;;;;;;;;;6.00;74.10;;;;;;4968361;28;117776;-87
2020/12/05 04:21:08;;;;;;;;;;;6.00;74.10;;;;;;4967469;28;117257;-87
2020/12/05 04:23:34;;;;;;;;;;;6.00;74.10;;;;;;4950183;28;121909;-87
2020/12/05 04:25:59;;;;;;;;;;;6.00;74.10;;;;;;4950700;28;117607;-87
2020/12/05 04:28:25;;;;;;;;;;;6.00;74.10;;;;;;4950991;28;117878;-87
2020/12/05 04:30:50;;;;;;;;;;;6.00;74.10;;;;;;4966276;28;121416;-87
2020/12/05 04:33:16;;;;;;;;;;;6.00;74.10;;;;;;4949960;28;121635;-87
2020/12/05 04:35:41;;;;;;;;;;;6.00;74.10;;;;;;4950416;28;117812;-87
2020/12/05 04:38:07;;;;;;;;;;;6.00;74.20;;;;;;4950845;28;117441;-88
2020/12/05 04:40:32;;;;;;;;;;;6.00;74.10;;;;;;4966206;28;117566;-87
2020/12/05 04:42:58;;;;;;;;;;;6.00;74.10;;;;;;4949216;28;119407;-87
2020/12/05 04:45:23;;;;;;;;;;;6.00;74.10;;;;;;4950314;28;117485;-87
2020/12/05 04:47:49;;;;;;;;;;;6.00;74.10;;;;;;4966798;28;117526;-87
2020/12/05 04:50:14;;;;;;;;;;;6.00;74.10;;;;;;4949015;28;120398;-87
2020/12/05 04:52:40;;;;;;;;;;;6.00;74.10;;;;;;4964888;28;122949;-87
2020/12/05 04:55:05;;;;;;;;;;;6.00;74.10;;;;;;4966122;28;117506;-87
2020/12/05 04:57:36;;;;;;;;;;;6.00;74.10;;;;;;4950227;28;117924;-87
2020/12/05 05:00:02;;;;;;;;;;;6.00;74.10;;;;;;4948845;28;120209;-87
2020/12/05 05:02:27;;;;;;;;;;;6.00;74.10;;;;;;4949200;28;119441;-87
2020/12/05 05:04:53;;;;;;;;;;;6.00;74.10;;;;;;4949574;28;117445;-87
2020/12/05 05:07:19;;;;;;;;;;;6.00;74.10;;;;;;4949249;28;117808;-87
2020/12/05 07:24:39;;;;;;;;;;;5.90;74.10;;;;;;4922283;28;119418;-89
2020/12/05 07:27:14;;;;;;;;;;;6.00;74.20;;;;;;4925524;28;118245;-89
2020/12/05 07:29:40;;;;;;;;;;;6.00;74.20;;;;;;4925677;28;117495;-89
2020/12/05 07:32:05;;;;;;;;;;;5.90;74.20;;;;;;4910072;28;117712;-89
2020/12/05 07:34:31;;;;;;;;;;;5.90;74.30;;;;;;4908748;28;117586;-89
2020/12/05 07:36:56;;;;;;;;;;;5.90;74.30;;;;;;4910755;28;119806;-89
2020/12/05 07:39:22;;;;;;;;;;;5.90;74.20;;;;;;4913437;28;117511;-89
2020/12/05 07:42:17;;;;;;;;;;;;;;;;;;;;;
2020/12/05 07:45:23;;;;;;;;;;;;;;;;;;;;;
2020/12/05 07:51:17;;;;;;;;;;;5.90;74.10;;;;;;4900957;28;116818;-92
2020/12/05 07:54:03;;;;;;;;;;;5.90;74.10;;;;;;4920246;28;116958;-93
2020/12/05 07:56:29;;;;;;;;;;;5.90;74.10;;;;;;4912223;28;119862;-89
2020/12/05 07:58:55;;;;;;;;;;;5.90;74.10;;;;;;4911345;28;118057;-90
2020/12/05 08:01:39;;;;;;;;;;;5.90;74.10;;;;;;4912205;28;117303;-89
2020/12/05 08:04:17;;;;;;;;;;;5.90;74.10;;;;;;4928531;28;117759;-90
2020/12/05 08:07:02;;;;;;;;;;;5.90;74.10;;;;;;4927291;28;120020;-89
2020/12/05 08:09:34;;;;;;;;;;;5.90;74.10;;;;;;4910966;28;118775;-90
2020/12/05 08:12:01;;;;;;;;;;;5.90;74.10;;;;;;4911879;28;117704;-89
2020/12/05 08:14:27;;;;;;;;;;;5.90;74.10;;;;;;4912116;28;117399;-90
2020/12/05 08:16:53;;;;;;;;;;;5.90;74.10;;;;;;4910882;28;120100;-90
2020/12/05 08:19:19;;;;;;;;;;;5.90;73.80;;;;;;4910230;28;118870;-90
2020/12/05 08:21:45;;;;;;;;;;;5.90;74.00;;;;;;4911446;28;117254;-90
2020/12/05 08:24:10;;;;;;;;;;;5.90;74.20;;;;;;4911680;28;117802;-90
2020/12/05 08:26:36;;;;;;;;;;;5.90;74.10;;;;;;4910575;28;120365;-91
2020/12/05 08:29:02;;;;;;;;;;;5.90;74.10;;;;;;4910363;28;119581;-90
2020/12/05 08:31:28;;;;;;;;;;;5.90;74.20;;;;;;4911563;28;117476;-91
2020/12/05 08:33:54;;;;;;;;;;;5.90;74.20;;;;;;4911812;28;117891;-90
2020/12/05 08:36:21;;;;;;;;;;;5.90;74.10;;;;;;4910832;28;121219;-90
2020/12/05 08:38:46;;;;;;;;;;;5.90;74.20;;;;;;4910284;28;120088;-90
2020/12/05 08:41:12;;;;;;;;;;;5.90;74.10;;;;;;4911305;28;117344;-91
2020/12/05 08:44:29;;;;;;;;;;;;;;;;;;;;;
2020/12/05 08:47:27;;;;;;;;;;;;;;;;;;;;;
2020/12/05 08:50:10;;;;;;;;;;;;;;;;;;;;;
2020/12/05 08:52:47;;;;;;;;;;;5.90;74.20;;;;;;4926710;28;121299;-91
2020/12/05 08:55:21;;;;;;;;;;;5.90;74.20;;;;;;4913576;28;117427;-91
2020/12/05 08:58:14;;;;;;;;;;;5.90;74.20;;;;;;4909777;28;120609;-91
2020/12/05 09:01:15;;;;;;;;;;;;;;;;;;;;;
2020/12/05 09:04:18;;;;;;;;;;;;;;;;;;;;;
2020/12/05 09:06:51;;;;;;;;;;;5.90;74.20;;;;;;4929269;28;117413;-91
2020/12/05 09:09:40;;;;;;;;;;;5.90;74.20;;;;;;4910101;28;121152;-91
2020/12/05 18:38:07;;;;;;;;;;;5.90;75.00;;;;;;4908410;28;116687;-93
2020/12/05 18:44:20;;;;;;;;;;;5.90;75.10;;;;;;4887562;28;116650;-91
2020/12/05 18:47:42;;;;;;;;;;;5.90;75.20;;;;;;4886720;28;117249;-91
2020/12/05 18:50:53;;;;;;;;;;;5.90;75.80;;;;;;4882519;28;117818;-91
2020/12/05 18:54:11;;;;;;;;;;;6.00;76.00;;;;;;4848605;29;117543;-91
2020/12/05 19:00:02;;;;;;;;;;;6.00;76.30;;;;;;4886047;28;116860;-91
2020/12/05 19:02:47;;;;;;;;;;;6.00;76.30;;;;;;4889546;28;116979;-91
2020/12/05 19:05:12;;;;;;;;;;;6.00;76.80;;;;;;4895349;28;116784;-91
2020/12/05 19:07:38;;;;;;;;;;;6.10;76.70;;;;;;4891120;28;117200;-91
2020/12/05 19:10:04;;;;;;;;;;;6.00;76.70;;;;;;4889842;28;120351;-91
2020/12/05 19:12:29;;;;;;;;;;;6.00;76.80;;;;;;4889419;28;120332;-91
2020/12/05 19:14:55;;;;;;;;;;;6.00;77.00;;;;;;4890568;28;116571;-91
2020/12/05 19:17:20;;;;;;;;;;;6.10;77.00;;;;;;4890598;28;116969;-91
2020/12/05 19:19:46;;;;;;;;;;;6.10;77.40;;;;;;4889598;28;120076;-91
2020/12/05 19:22:11;;;;;;;;;;;6.00;78.00;;;;;;4889711;28;118870;-91
2020/12/05 19:24:37;;;;;;;;;;;6.00;77.40;;;;;;4890318;28;116688;-91
2020/12/05 19:27:02;;;;;;;;;;;6.10;77.40;;;;;;4890847;28;117490;-91
2020/12/05 19:29:28;;;;;;;;;;;6.10;77.80;;;;;;4888990;28;120208;-91
2020/12/05 19:31:53;;;;;;;;;;;6.10;77.40;;;;;;4889822;28;119138;-92
2020/12/05 19:34:19;;;;;;;;;;;6.10;78.60;;;;;;4894381;28;117386;-91
2020/12/05 19:36:44;;;;;;;;;;;6.10;77.90;;;;;;4912620;28;116844;-91
2020/12/05 19:39:11;;;;;;;;;;;6.10;78.60;;;;;;4893631;28;120475;-91
2020/12/05 19:41:36;;;;;;;;;;;6.10;78.60;;;;;;4892231;28;118928;-91
2020/12/05 19:44:02;;;;;;;;;;;6.10;78.10;;;;;;4893599;28;116623;-91
2020/12/05 19:46:28;;;;;;;;;;;6.10;78.50;;;;;;4893903;28;116772;-91
2020/12/05 19:48:53;;;;;;;;;;;6.10;79.00;;;;;;4892731;28;120102;-91
2020/12/05 19:51:19;;;;;;;;;;;6.10;78.90;;;;;;4892464;28;119234;-91
2020/12/05 19:53:44;;;;;;;;;;;6.10;79.10;;;;;;4893413;28;116580;-91
2020/12/05 19:56:10;;;;;;;;;;;6.10;78.80;;;;;;4893778;28;117871;-91
2020/12/05 19:58:35;;;;;;;;;;;6.10;79.30;;;;;;4892588;28;119883;-91
2020/12/05 20:01:01;;;;;;;;;;;6.10;78.70;;;;;;4892061;28;119415;-91
2020/12/05 20:03:26;;;;;;;;;;;6.10;78.70;;;;;;4893485;28;116691;-90
2020/12/05 20:05:52;;;;;;;;;;;6.10;78.90;;;;;;4892860;28;116924;-91
2020/12/05 20:08:17;;;;;;;;;;;6.10;79.10;;;;;;4892249;28;119958;-91
2020/12/05 20:10:47;;;;;;;;;;;6.10;79.10;;;;;;4892337;28;119258;-91
2020/12/05 20:13:12;;;;;;;;;;;6.10;79.30;;;;;;4893814;28;116551;-92
2020/12/05 20:15:38;;;;;;;;;;;6.10;78.90;;;;;;4893461;28;117436;-91
2020/12/05 20:18:03;;;;;;;;;;;6.10;79.00;;;;;;4908655;28;117595;-92
2020/12/05 20:20:29;;;;;;;;;;;6.10;79.10;;;;;;4892015;28;118971;-91
2020/12/05 20:22:54;;;;;;;;;;;6.20;79.20;;;;;;4893406;28;117382;-91
2020/12/05 20:25:20;;;;;;;;;;;6.10;78.80;;;;;;4893428;28;116908;-91
2020/12/05 20:27:45;;;;;;;;;;;6.20;79.10;;;;;;4892417;28;120147;-91
2020/12/05 20:30:11;;;;;;;;;;;6.10;78.90;;;;;;4891395;28;119610;-91
2020/12/05 20:32:36;;;;;;;;;;;6.10;79.20;;;;;;4892775;28;116643;-92
2020/12/05 20:35:02;;;;;;;;;;;6.10;79.20;;;;;;4893326;28;116971;-92
2020/12/05 20:37:32;;;;;;;;;;;6.10;79.40;;;;;;4892283;28;119567;-91
2020/12/05 20:39:58;;;;;;;;;;;6.10;79.50;;;;;;4908379;28;119355;-92
2020/12/05 20:42:23;;;;;;;;;;;6.10;79.10;;;;;;4893094;28;116780;-91
2020/12/05 20:44:49;;;;;;;;;;;6.20;79.90;;;;;;4893206;28;116773;-92
2020/12/05 20:47:14;;;;;;;;;;;6.10;79.70;;;;;;4891950;28;120685;-92
2020/12/05 20:49:40;;;;;;;;;;;6.10;79.50;;;;;;4892255;28;119038;-92
2020/12/05 20:52:06;;;;;;;;;;;6.10;79.40;;;;;;4892622;28;116592;-91
2020/12/05 20:54:31;;;;;;;;;;;6.10;79.60;;;;;;4892624;28;116796;-92
2020/12/05 20:56:57;;;;;;;;;;;6.10;79.90;;;;;;4891783;28;119770;-92
2020/12/05 20:59:22;;;;;;;;;;;6.10;79.80;;;;;;4891782;28;118912;-92
2020/12/05 21:01:48;;;;;;;;;;;6.10;80.10;;;;;;4892578;28;116623;-91
2020/12/05 21:04:14;;;;;;;;;;;6.10;79.50;;;;;;4893250;28;116813;-92
2020/12/05 21:06:39;;;;;;;;;;;6.10;79.90;;;;;;4891538;28;119660;-92
2020/12/05 21:09:05;;;;;;;;;;;6.10;79.80;;;;;;4891686;28;119049;-92
2020/12/05 21:11:34;;;;;;;;;;;6.10;80.40;;;;;;4892956;28;116643;-92
2020/12/05 21:13:59;;;;;;;;;;;6.10;80.40;;;;;;4893175;28;116952;-92
2020/12/05 21:16:25;;;;;;;;;;;6.10;80.10;;;;;;4891698;28;119938;-92
2020/12/05 21:18:50;;;;;;;;;;;6.10;80.10;;;;;;4891334;28;119412;-92
2020/12/05 21:21:16;;;;;;;;;;;6.20;80.20;;;;;;4892529;28;116672;-92
2020/12/05 21:23:42;;;;;;;;;;;6.10;80.00;;;;;;4892924;28;116880;-91
2020/12/05 21:26:11;;;;;;;;;;;6.20;80.20;;;;;;4891578;28;120015;-92
2020/12/05 21:28:37;;;;;;;;;;;6.20;79.80;;;;;;4891565;28;119074;-92
2020/12/05 21:31:03;;;;;;;;;;;6.20;80.10;;;;;;4891711;28;116754;-92
2020/12/05 21:33:28;;;;;;;;;;;6.20;80.40;;;;;;4893574;28;116896;-92
2020/12/05 21:35:54;;;;;;;;;;;6.20;80.00;;;;;;4891954;28;120047;-92
2020/12/05 21:38:19;;;;;;;;;;;6.20;80.30;;;;;;4891520;28;119369;-92
2020/12/05 21:40:45;;;;;;;;;;;6.10;80.20;;;;;;4891815;28;116720;-91
2020/12/05 21:43:13;;;;;;;;;;;6.10;80.10;;;;;;4891907;28;117055;-92
2020/12/05 21:45:38;;;;;;;;;;;6.10;80.20;;;;;;4891190;28;120519;-92
2020/12/05 21:48:04;;;;;;;;;;;6.20;80.00;;;;;;4891383;28;119249;-92
2020/12/05 21:50:29;;;;;;;;;;;6.10;80.30;;;;;;4891534;28;116682;-91
2020/12/05 21:52:55;;;;;;;;;;;6.10;80.00;;;;;;4892234;28;116892;-91
2020/12/05 21:55:20;;;;;;;;;;;6.20;80.40;;;;;;4890299;28;120363;-92
2020/12/05 21:57:50;;;;;;;;;;;6.20;80.70;;;;;;4891050;28;118977;-92
2020/12/05 22:00:15;;;;;;;;;;;6.10;80.50;;;;;;4892543;28;116636;-92
2020/12/05 22:02:45;;;;;;;;;;;6.10;80.50;;;;;;4892031;28;116877;-92
2020/12/05 22:05:11;;;;;;;;;;;6.20;80.40;;;;;;4891661;28;120130;-92
2020/12/05 22:07:37;;;;;;;;;;;6.10;80.30;;;;;;4890171;28;118972;-92
2020/12/05 22:10:02;;;;;;;;;;;6.10;80.20;;;;;;4891771;28;116615;-92
2020/12/05 22:12:28;;;;;;;;;;;6.20;80.50;;;;;;4891949;28;116844;-92
2020/12/05 22:14:53;;;;;;;;;;;6.10;80.40;;;;;;4890718;28;119875;-92
2020/12/05 22:17:19;;;;;;;;;;;6.10;80.60;;;;;;4891125;28;120533;-92
2020/12/05 22:19:44;;;;;;;;;;;6.20;80.60;;;;;;4891576;28;116568;-92
2020/12/05 22:22:10;;;;;;;;;;;6.20;80.20;;;;;;4891586;28;116832;-91
2020/12/05 22:24:35;;;;;;;;;;;6.20;80.30;;;;;;4891012;28;120138;-92
2020/12/05 22:27:01;;;;;;;;;;;6.20;80.20;;;;;;4890353;28;119314;-92
2020/12/05 22:29:27;;;;;;;;;;;6.20;80.10;;;;;;4891452;28;116788;-92
2020/12/05 22:31:53;;;;;;;;;;;6.20;80.20;;;;;;4891072;28;116757;-92
2020/12/05 22:34:18;;;;;;;;;;;6.20;80.20;;;;;;4890682;28;120093;-92
2020/12/05 22:36:44;;;;;;;;;;;6.20;80.20;;;;;;4890456;28;119314;-92
2020/12/05 22:39:10;;;;;;;;;;;6.20;80.50;;;;;;4891407;28;116717;-92
2020/12/05 22:41:36;;;;;;;;;;;6.20;80.30;;;;;;4891233;28;116865;-91
2020/12/05 22:44:02;;;;;;;;;;;6.20;80.30;;;;;;4890357;28;120289;-92
2020/12/05 22:46:27;;;;;;;;;;;6.20;80.20;;;;;;4890378;28;119144;-92
2020/12/05 22:48:53;;;;;;;;;;;6.20;80.00;;;;;;4891515;28;116548;-92
2020/12/05 22:51:18;;;;;;;;;;;6.20;80.20;;;;;;4891136;28;116821;-92
2020/12/05 22:53:44;;;;;;;;;;;6.20;80.20;;;;;;4890323;28;119560;-92
2020/12/05 22:56:09;;;;;;;;;;;6.20;80.30;;;;;;4889712;28;119476;-91
2020/12/05 22:58:35;;;;;;;;;;;6.20;80.40;;;;;;4890944;28;116632;-92
2020/12/05 23:01:00;;;;;;;;;;;6.20;80.40;;;;;;4891161;28;118415;-92
2020/12/05 23:03:26;;;;;;;;;;;6.20;80.20;;;;;;4890119;28;119853;-92
2020/12/05 23:05:52;;;;;;;;;;;6.20;80.40;;;;;;4889724;28;119245;-92
2020/12/05 23:08:17;;;;;;;;;;;6.20;80.20;;;;;;4889789;28;116709;-92
2020/12/05 23:10:43;;;;;;;;;;;6.20;80.30;;;;;;4891364;28;116904;-91
2020/12/05 23:13:14;;;;;;;;;;;6.20;80.10;;;;;;4889818;28;120361;-92
2020/12/05 23:15:39;;;;;;;;;;;6.20;80.20;;;;;;4890786;28;119516;-91
2020/12/05 23:18:06;;;;;;;;;;;6.20;80.10;;;;;;4890805;28;116647;-92
2020/12/05 23:20:31;;;;;;;;;;;6.20;80.20;;;;;;4890884;28;117534;-89
2020/12/05 23:22:57;;;;;;;;;;;6.20;80.50;;;;;;4889302;28;121137;-88
2020/12/05 23:25:22;;;;;;;;;;;6.20;80.20;;;;;;4889048;28;120588;-89
2020/12/05 23:27:48;;;;;;;;;;;6.20;80.40;;;;;;4889908;28;117821;-88
2020/12/05 23:30:23;;;;;;;;;;;6.20;80.20;;;;;;4889955;28;117892;-89
2020/12/05 23:32:55;;;;;;;;;;;6.20;80.00;;;;;;4890295;28;120006;-89
2020/12/05 23:35:21;;;;;;;;;;;6.20;80.20;;;;;;4889923;28;120478;-88
2020/12/05 23:37:47;;;;;;;;;;;6.20;80.10;;;;;;4890123;28;117570;-88
2020/12/05 23:40:12;;;;;;;;;;;6.20;80.20;;;;;;4890180;28;117665;-89
2020/12/05 23:42:41;;;;;;;;;;;6.20;80.30;;;;;;4888707;28;119787;-89
2020/12/05 23:45:07;;;;;;;;;;;6.20;80.30;;;;;;4888694;28;120485;-89
2020/12/05 23:47:33;;;;;;;;;;;6.20;80.20;;;;;;4889540;28;117312;-89
2020/12/05 23:49:58;;;;;;;;;;;6.20;80.20;;;;;;4890380;28;117329;-89
2020/12/05 23:52:24;;;;;;;;;;;6.20;80.20;;;;;;4888508;28;120996;-89
2020/12/05 23:54:49;;;;;;;;;;;6.20;80.20;;;;;;4888546;28;120432;-89
2020/12/05 23:57:15;;;;;;;;;;;6.20;80.00;;;;;;4889600;28;117567;-89
2020/12/05 23:59:40;;;;;;;;;;;6.20;80.20;;;;;;4889694;28;117594;-88
